createdAt,value
2023-04-28T00:00:13.737Z,13.07
2023-04-28T00:02:42.267Z,18.20
2023-04-28T00:05:11.150Z,13.02
2023-04-28T00:07:41.081Z,15.18
2023-04-28T00:10:10.755Z,16.08
2023-04-28T00:12:39.403Z,15.75
2023-04-28T00:15:09.249Z,14.15
2023-04-28T00:17:37.801Z,10.70
2023-04-28T00:20:07.543Z,12.20
2023-04-28T00:22:36.090Z,14.88
2023-04-28T00:25:06.700Z,16.45
2023-04-28T00:27:35.197Z,16.83
2023-04-28T00:30:03.938Z,18.88
2023-04-28T00:32:32.253Z,15.63
2023-04-28T00:35:00.622Z,19.10
2023-04-28T00:37:28.900Z,21.10
2023-04-28T00:39:57.721Z,19.20
2023-04-28T00:42:27.500Z,20.42
2023-04-28T00:44:55.864Z,18.92
2023-04-28T00:47:24.538Z,16.15
2023-04-28T00:49:53.131Z,17.65
2023-04-28T00:52:22.013Z,14.95
2023-04-28T00:54:50.539Z,16.33
2023-04-28T00:57:19.041Z,15.23
2023-04-28T00:59:48.746Z,17.35
2023-04-28T01:02:18.380Z,20.88
2023-04-28T01:04:47.943Z,16.33
2023-04-28T01:07:16.247Z,17.95
2023-04-28T01:09:46.286Z,14.73
2023-04-28T01:12:14.578Z,13.50
2023-04-28T01:14:43.309Z,19.67
2023-04-28T01:17:13.462Z,14.90
2023-04-28T01:19:41.943Z,15.20
2023-04-28T01:22:14.172Z,15.68
2023-04-28T01:24:43.905Z,17.08
2023-04-28T01:27:12.766Z,7.88
2023-04-28T01:29:41.146Z,14.50
2023-04-28T01:32:09.466Z,13.80
2023-04-28T01:34:37.855Z,12.73
2023-04-28T01:37:06.144Z,12.80
2023-04-28T01:39:35.100Z,13.95
2023-04-28T01:42:04.885Z,16.92
2023-04-28T01:44:33.183Z,20.50
2023-04-28T01:47:01.678Z,14.52
2023-04-28T01:49:30.021Z,14.55
2023-04-28T01:51:58.401Z,17.05
2023-04-28T01:54:27.575Z,14.63
2023-04-28T01:56:56.004Z,15.10
2023-04-28T01:59:26.046Z,13.77
2023-04-28T02:01:54.418Z,19.48
2023-04-28T02:04:22.808Z,17.02
2023-04-28T02:06:51.151Z,16.92
2023-04-28T02:09:19.623Z,19.27
2023-04-28T02:11:48.038Z,15.10
2023-04-28T02:14:16.673Z,17.73
2023-04-28T02:16:46.758Z,20.08
2023-04-28T02:19:16.073Z,15.68
2023-04-28T02:21:44.682Z,20.25
2023-04-28T02:24:13.227Z,22.63
2023-04-28T02:26:41.965Z,25.38
2023-04-28T02:29:10.279Z,19.02
2023-04-28T02:31:38.767Z,19.58
2023-04-28T02:34:08.671Z,18.02
2023-04-28T02:36:37.036Z,20.55
2023-04-28T02:39:05.426Z,20.00
2023-04-28T02:41:34.753Z,24.88
2023-04-28T02:44:03.125Z,15.38
2023-04-28T02:46:31.426Z,17.55
2023-04-28T02:48:59.817Z,20.30
2023-04-28T02:51:29.706Z,19.85
2023-04-28T02:53:58.096Z,19.25
2023-04-28T02:56:26.599Z,18.85
2023-04-28T02:58:54.878Z,18.95
2023-04-28T03:01:23.844Z,16.17
2023-04-28T03:03:52.379Z,17.92
2023-04-28T03:06:20.848Z,18.88
2023-04-28T03:08:50.559Z,17.73
2023-04-28T03:11:19.049Z,21.90
2023-04-28T03:13:47.547Z,21.45
2023-04-28T03:16:15.932Z,19.10
2023-04-28T03:18:44.346Z,18.08
2023-04-28T03:21:12.684Z,18.38
2023-04-28T03:23:41.305Z,21.73
2023-04-28T03:26:11.186Z,17.58
2023-04-28T03:28:39.752Z,21.17
2023-04-28T03:31:08.080Z,16.80
2023-04-28T03:33:36.728Z,26.25
2023-04-28T03:36:05.767Z,22.00
2023-04-28T03:38:34.152Z,29.95
2023-04-28T03:41:02.473Z,24.50
2023-04-28T03:43:33.282Z,24.60
2023-04-28T03:46:01.604Z,20.80
2023-04-28T03:48:29.993Z,19.23
2023-04-28T03:50:58.435Z,23.90
2023-04-28T03:53:26.838Z,26.27
2023-04-28T03:55:55.237Z,22.75
2023-04-28T03:58:23.568Z,22.83
2023-04-28T04:00:53.282Z,25.27
2023-04-28T04:03:26.353Z,23.27
2023-04-28T04:05:55.832Z,28.73
2023-04-28T04:08:24.376Z,26.25
2023-04-28T04:10:54.787Z,24.45
2023-04-28T04:13:23.298Z,26.17
2023-04-28T04:15:53.732Z,28.13
2023-04-28T04:18:22.433Z,28.25
2023-04-28T04:20:51.214Z,25.08
2023-04-28T04:23:19.538Z,26.88
2023-04-28T04:25:47.838Z,29.63
2023-04-28T04:28:16.462Z,28.85
2023-04-28T04:30:44.993Z,30.63
2023-04-28T04:33:15.431Z,30.75
2023-04-28T04:35:43.810Z,31.80
2023-04-28T04:38:12.221Z,30.17
2023-04-28T04:40:40.664Z,33.10
2023-04-28T04:43:09.039Z,39.35
2023-04-28T04:45:37.580Z,35.53
2023-04-28T04:48:06.352Z,32.33
2023-04-28T04:50:36.088Z,38.13
2023-04-28T04:53:04.989Z,47.08
2023-04-28T04:55:33.902Z,42.13
2023-04-28T04:58:02.778Z,43.08
2023-04-28T05:00:31.158Z,47.42
2023-04-28T05:02:59.667Z,45.50
2023-04-28T05:05:28.122Z,56.30
2023-04-28T05:07:57.918Z,60.38
2023-04-28T05:10:27.509Z,54.38
2023-04-28T05:12:55.788Z,55.35
2023-04-28T05:15:24.222Z,57.05
2023-04-28T05:17:52.715Z,56.03
2023-04-28T05:20:21.762Z,58.97
2023-04-28T05:22:50.538Z,68.68
2023-04-28T05:25:20.361Z,69.05
2023-04-28T05:27:48.767Z,63.30
2023-04-28T05:30:17.146Z,69.03
2023-04-28T05:32:46.182Z,68.70
2023-04-28T05:35:15.249Z,79.90
2023-04-28T05:37:45.220Z,82.55
2023-04-28T05:40:13.921Z,81.82
2023-04-28T05:42:43.726Z,83.97
2023-04-28T05:45:13.275Z,81.30
2023-04-28T05:47:42.103Z,86.25
2023-04-28T05:50:11.407Z,88.65
2023-04-28T05:52:39.751Z,93.35
2023-04-28T05:55:09.024Z,91.10
2023-04-28T05:57:45.768Z,92.50
2023-04-28T06:00:22.968Z,90.43
2023-04-28T06:02:51.462Z,82.38
2023-04-28T06:05:20.093Z,72.18
2023-04-28T06:07:50.175Z,56.58
2023-04-28T06:10:19.948Z,62.95
2023-04-28T06:12:48.275Z,61.40
2023-04-28T06:15:16.607Z,57.25
2023-04-28T06:17:46.753Z,61.42
2023-04-28T06:20:16.552Z,58.05
2023-04-28T06:22:45.219Z,60.10
2023-04-28T06:25:13.806Z,61.58
2023-04-28T06:27:42.235Z,68.05
2023-04-28T06:30:11.198Z,60.15
2023-04-28T06:32:39.598Z,55.40
2023-04-28T06:35:09.827Z,54.08
2023-04-28T06:37:38.431Z,50.25
2023-04-28T06:40:08.031Z,47.00
2023-04-28T06:42:36.444Z,40.63
2023-04-28T06:45:04.951Z,42.85
2023-04-28T06:47:33.705Z,36.35
2023-04-28T06:50:02.928Z,33.00
2023-04-28T06:52:38.491Z,29.45
2023-04-28T06:55:09.497Z,19.50
2023-04-28T06:57:38.312Z,16.95
2023-04-28T07:00:08.092Z,15.02
2023-04-28T07:02:37.124Z,12.02
2023-04-28T07:05:06.145Z,9.98
2023-04-28T07:07:35.917Z,9.10
2023-04-28T07:10:04.398Z,8.15
2023-04-28T07:12:32.807Z,7.43
2023-04-28T07:15:01.155Z,6.57
2023-04-28T07:17:29.632Z,6.93
2023-04-28T07:19:57.995Z,13.68
2023-04-28T07:22:26.786Z,5.97
2023-04-28T07:24:56.892Z,5.95
2023-04-28T07:27:25.278Z,14.13
2023-04-28T07:29:53.975Z,8.48
2023-04-28T07:32:24.283Z,5.88
2023-04-28T07:34:52.679Z,5.78
2023-04-28T07:37:21.081Z,4.25
2023-04-28T07:39:49.564Z,6.90
2023-04-28T07:42:19.601Z,25.95
2023-04-28T07:44:47.937Z,7.72
2023-04-28T07:47:16.363Z,4.63
2023-04-28T07:49:44.973Z,3.40
2023-04-28T07:52:13.732Z,3.40
2023-04-28T07:54:42.357Z,2.92
2023-04-28T07:57:11.050Z,2.55
2023-04-28T07:59:40.875Z,1.85
2023-04-28T08:02:09.464Z,1.83
2023-04-28T08:04:41.127Z,1.73
2023-04-28T08:07:10.754Z,1.33
2023-04-28T08:09:41.646Z,0.80
2023-04-28T08:12:10.855Z,0.85
2023-04-28T08:14:40.916Z,1.15
2023-04-28T08:17:09.517Z,0.82
2023-04-28T08:19:38.000Z,0.45
2023-04-28T08:22:07.316Z,0.45
2023-04-28T08:24:36.191Z,0.43
2023-04-28T08:27:05.482Z,0.52
2023-04-28T08:29:33.998Z,0.73
2023-04-28T08:32:04.890Z,1.17
2023-04-28T08:34:33.206Z,0.40
2023-04-28T08:37:02.215Z,0.40
2023-04-28T08:39:31.651Z,1.67
2023-04-28T08:41:59.956Z,1.20
2023-04-28T08:44:28.808Z,2.58
2023-04-28T08:47:01.001Z,0.40
2023-04-28T08:49:37.238Z,0.40
2023-04-28T08:52:11.878Z,0.40
2023-04-28T08:54:41.630Z,0.70
2023-04-28T08:57:11.421Z,0.73
2023-04-28T08:59:41.707Z,0.40
2023-04-28T09:02:10.541Z,0.40
2023-04-28T09:04:41.203Z,0.85
2023-04-28T09:07:13.022Z,2.47
2023-04-28T09:09:42.185Z,7.55
2023-04-28T09:12:10.668Z,1.67
2023-04-28T09:14:40.313Z,1.50
2023-04-28T09:17:13.127Z,1.27
2023-04-28T09:19:43.884Z,2.15
2023-04-28T09:22:24.772Z,2.97
2023-04-28T09:24:55.424Z,5.40
2023-04-28T09:27:29.595Z,0.57
2023-04-28T09:29:59.617Z,1.17
2023-04-28T09:32:29.748Z,1.15
2023-04-28T09:34:59.814Z,0.52
2023-04-28T09:37:31.086Z,1.30
2023-04-28T09:40:05.005Z,7.35
2023-04-28T09:42:34.850Z,2.72
2023-04-28T09:45:03.719Z,1.95
2023-04-28T09:47:33.548Z,3.22
2023-04-28T09:50:06.377Z,3.17
2023-04-28T09:52:35.849Z,1.52
2023-04-28T09:55:05.596Z,1.42
2023-04-28T09:57:34.997Z,1.55
2023-04-28T10:00:06.440Z,0.95
2023-04-28T10:05:11.634Z,1.48
2023-04-28T10:07:41.352Z,1.70
2023-04-28T10:10:10.298Z,1.75
2023-04-28T10:12:39.299Z,1.00
2023-04-28T10:15:08.908Z,1.33
2023-04-28T10:17:38.399Z,2.50
2023-04-28T10:20:08.723Z,2.80
2023-04-28T10:22:49.123Z,1.17
2023-04-28T10:25:27.102Z,0.68
2023-04-28T10:27:55.826Z,1.00
2023-04-28T10:30:28.835Z,0.60
2023-04-28T10:33:16.208Z,2.50
2023-04-28T10:35:45.961Z,0.80
2023-04-28T10:38:16.797Z,4.43
2023-04-28T10:40:45.857Z,0.85
2023-04-28T10:43:15.209Z,0.60
2023-04-28T10:46:02.793Z,1.27
2023-04-28T10:48:50.282Z,1.13
2023-04-28T10:51:34.404Z,1.88
2023-04-28T10:54:10.943Z,2.30
2023-04-28T10:56:40.626Z,2.13
2023-04-28T10:59:30.259Z,3.60
2023-04-28T11:02:43.891Z,3.35
2023-04-28T11:05:20.419Z,3.53
2023-04-28T11:08:32.766Z,4.45
2023-04-28T11:11:29.858Z,2.42
2023-04-28T11:14:36.314Z,2.90
2023-04-28T11:17:06.580Z,3.28
2023-04-28T11:19:36.644Z,3.08
2023-04-28T11:22:10.058Z,2.50
2023-04-28T11:24:38.914Z,3.13
2023-04-28T11:27:08.750Z,3.53
2023-04-28T11:29:38.776Z,3.22
2023-04-28T11:32:09.361Z,3.25
2023-04-28T11:34:38.667Z,2.70
2023-04-28T11:37:08.666Z,3.08
2023-04-28T11:39:37.341Z,3.72
2023-04-28T11:42:12.544Z,3.22
2023-04-28T11:44:40.975Z,3.95
2023-04-28T11:47:09.536Z,3.55
2023-04-28T11:49:45.172Z,3.28
2023-04-28T11:52:14.167Z,2.65
2023-04-28T11:54:43.831Z,2.55
2023-04-28T11:57:22.578Z,2.58
2023-04-28T11:59:51.423Z,2.38
2023-04-28T12:02:29.919Z,2.47
2023-04-28T12:05:07.095Z,1.67
2023-04-28T12:07:43.915Z,2.30
2023-04-28T12:10:13.982Z,2.45
2023-04-28T12:15:15.400Z,1.40
2023-04-28T12:17:45.733Z,1.60
2023-04-28T12:20:35.918Z,1.25
2023-04-28T12:23:04.466Z,1.10
2023-04-28T12:25:34.056Z,0.98
2023-04-28T12:28:05.747Z,1.67
2023-04-28T12:30:35.234Z,1.52
2023-04-28T12:33:04.400Z,1.10
2023-04-28T12:35:33.345Z,1.60
2023-04-28T12:38:01.704Z,1.15
2023-04-28T12:40:30.228Z,1.38
2023-04-28T12:42:58.512Z,1.10
2023-04-28T12:45:30.307Z,1.42
2023-04-28T12:47:59.006Z,3.05
2023-04-28T12:50:29.346Z,0.90
2023-04-28T12:52:57.954Z,0.70
2023-04-28T12:55:27.103Z,1.50
2023-04-28T12:57:56.460Z,0.80
2023-04-28T13:00:25.191Z,1.58
2023-04-28T13:02:55.063Z,0.85
2023-04-28T13:05:23.534Z,1.60
2023-04-28T13:07:52.591Z,7.53
2023-04-28T13:10:22.549Z,1.60
2023-04-28T13:12:51.087Z,2.53
2023-04-28T13:15:19.629Z,2.45
2023-04-28T13:17:49.509Z,1.15
2023-04-28T13:20:19.248Z,1.48
2023-04-28T13:22:47.564Z,3.42
2023-04-28T13:25:16.343Z,2.78
2023-04-28T13:27:44.819Z,1.70
2023-04-28T13:30:14.576Z,3.15
2023-04-28T13:32:43.981Z,2.10
2023-04-28T13:35:12.303Z,3.97
2023-04-28T13:37:45.840Z,3.55
2023-04-28T13:40:14.537Z,3.33
2023-04-28T13:42:42.891Z,3.58
2023-04-28T13:45:12.106Z,4.03
2023-04-28T13:47:40.478Z,4.38
2023-04-28T13:50:09.514Z,5.78
2023-04-28T13:52:37.933Z,5.97
2023-04-28T13:55:08.337Z,6.05
2023-04-28T13:57:36.659Z,6.18
2023-04-28T14:00:06.009Z,6.25
2023-04-28T14:02:34.408Z,7.28
2023-04-28T14:05:02.798Z,7.38
2023-04-28T14:07:31.194Z,5.75
2023-04-28T14:10:00.006Z,4.78
2023-04-28T14:12:29.712Z,4.35
2023-04-28T14:14:58.319Z,4.70
2023-04-28T14:17:31.010Z,4.65
2023-04-28T14:20:18.672Z,3.33
2023-04-28T14:22:48.900Z,2.38
2023-04-28T14:25:18.673Z,2.38
2023-04-28T14:28:01.615Z,1.92
2023-04-28T14:30:29.972Z,1.63
2023-04-28T14:32:59.464Z,1.83
2023-04-28T14:35:28.138Z,1.63
2023-04-28T14:37:56.541Z,1.40
2023-04-28T14:40:25.012Z,1.70
2023-04-28T14:42:54.710Z,1.35
2023-04-28T14:45:23.141Z,1.52
2023-04-28T14:47:51.774Z,1.15
2023-04-28T14:50:20.141Z,1.80
2023-04-28T14:52:48.482Z,1.55
2023-04-28T14:55:17.190Z,3.33
2023-04-28T14:57:45.551Z,0.85
2023-04-28T15:00:16.895Z,2.00
2023-04-28T15:02:46.371Z,2.55
2023-04-28T15:05:14.946Z,4.70
2023-04-28T15:07:43.292Z,4.50
2023-04-28T15:10:11.910Z,2.45
2023-04-28T15:12:40.494Z,2.25
2023-04-28T15:15:09.908Z,1.02
2023-04-28T15:17:39.712Z,1.40
2023-04-28T15:20:09.286Z,0.82
2023-04-28T15:22:37.687Z,0.60
2023-04-28T15:25:07.474Z,0.40
2023-04-28T15:27:36.603Z,0.43
2023-04-28T15:30:05.441Z,0.88
2023-04-28T15:32:33.903Z,2.33
2023-04-28T15:35:04.220Z,0.88
2023-04-28T15:37:41.809Z,0.80
2023-04-28T15:40:12.463Z,3.20
2023-04-28T15:42:43.104Z,1.40
2023-04-28T15:45:12.087Z,1.60
2023-04-28T15:47:40.766Z,1.40
2023-04-28T15:50:11.743Z,1.15
2023-04-28T15:52:45.872Z,1.33
2023-04-28T15:55:15.432Z,1.77
2023-04-28T15:57:44.535Z,13.88
2023-04-28T16:00:14.935Z,1.70
2023-04-28T16:02:44.103Z,2.35
2023-04-28T16:05:14.263Z,4.15
2023-04-28T16:07:42.736Z,7.53
2023-04-28T16:10:12.679Z,11.18
2023-04-28T16:12:42.260Z,8.98
2023-04-28T16:15:12.247Z,12.20
2023-04-28T16:17:41.089Z,8.65
2023-04-28T16:20:11.015Z,10.05
2023-04-28T16:22:41.975Z,7.20
2023-04-28T16:25:13.245Z,6.57
2023-04-28T16:27:42.637Z,6.47
2023-04-28T16:30:11.481Z,6.30
2023-04-28T16:32:40.922Z,7.25
2023-04-28T16:35:15.080Z,6.50
2023-04-28T16:37:45.486Z,6.97
2023-04-28T16:40:15.233Z,6.43
2023-04-28T16:42:45.160Z,6.38
2023-04-28T16:45:13.967Z,5.22
2023-04-28T16:47:43.929Z,4.50
2023-04-28T16:50:14.750Z,5.05
2023-04-28T16:52:44.985Z,8.85
2023-04-28T16:55:13.409Z,6.65
2023-04-28T16:57:42.396Z,7.03
2023-04-28T17:00:12.016Z,8.55
2023-04-28T17:02:40.386Z,8.75
2023-04-28T17:05:09.817Z,8.98
2023-04-28T17:07:38.159Z,9.85
2023-04-28T17:10:09.181Z,10.73
2023-04-28T17:12:37.468Z,11.57
2023-04-28T17:15:06.757Z,9.10
2023-04-28T17:17:35.380Z,8.32
2023-04-28T17:20:04.595Z,13.77
2023-04-28T17:22:33.398Z,12.55
2023-04-28T17:25:02.001Z,13.20
2023-04-28T17:27:31.779Z,10.50
2023-04-28T17:30:00.153Z,11.45
2023-04-28T17:32:30.950Z,15.10
2023-04-28T17:34:59.461Z,14.00
2023-04-28T17:37:27.788Z,13.57
2023-04-28T17:39:56.402Z,17.50
2023-04-28T17:42:24.881Z,13.82
2023-04-28T17:44:54.916Z,17.08
2023-04-28T17:47:23.537Z,15.13
2023-04-28T17:49:51.890Z,23.30
2023-04-28T17:52:20.797Z,16.80
2023-04-28T17:54:49.584Z,16.80
2023-04-28T17:57:18.893Z,18.83
2023-04-28T17:59:50.844Z,21.75
2023-04-28T18:02:20.898Z,19.60
2023-04-28T18:04:50.896Z,19.60
2023-04-28T18:07:19.958Z,20.55
2023-04-28T18:09:48.281Z,18.67
2023-04-28T18:12:17.178Z,17.73
2023-04-28T18:14:45.606Z,15.05
2023-04-28T18:17:14.044Z,17.08
2023-04-28T18:19:43.707Z,14.05
2023-04-28T18:22:12.186Z,18.75
2023-04-28T18:24:42.531Z,18.73
2023-04-28T18:27:10.999Z,17.60
2023-04-28T18:29:39.378Z,21.38
2023-04-28T18:32:07.767Z,20.85
2023-04-28T18:34:36.165Z,21.20
2023-04-28T18:37:05.833Z,22.58
2023-04-28T18:39:34.214Z,19.45
2023-04-28T18:42:03.458Z,17.35
2023-04-28T18:44:31.916Z,21.45
2023-04-28T18:47:00.345Z,24.90
2023-04-28T18:49:31.616Z,22.25
2023-04-28T18:52:02.525Z,22.38
2023-04-28T18:54:32.983Z,17.08
2023-04-28T18:57:01.309Z,21.38
2023-04-28T18:59:30.282Z,24.58
2023-04-28T19:02:00.918Z,21.75
2023-04-28T19:04:29.686Z,21.00
2023-04-28T19:06:58.458Z,21.83
2023-04-28T19:09:26.793Z,20.38
2023-04-28T19:11:56.724Z,23.38
2023-04-28T19:14:25.076Z,22.88
2023-04-28T19:16:53.419Z,29.70
2023-04-28T19:19:21.764Z,23.88
2023-04-28T19:21:50.300Z,26.35
2023-04-28T19:24:19.167Z,24.58
2023-04-28T19:26:48.078Z,26.30
2023-04-28T19:29:17.759Z,28.60
2023-04-28T19:31:46.141Z,30.42
2023-04-28T19:34:14.438Z,25.23
2023-04-28T19:36:43.390Z,34.28
2023-04-28T19:39:11.706Z,27.60
2023-04-28T19:41:40.042Z,30.52
2023-04-28T19:44:08.409Z,39.00
2023-04-28T19:46:38.151Z,30.13
2023-04-28T19:49:07.547Z,40.03
2023-04-28T19:51:35.842Z,35.28
2023-04-28T19:54:04.256Z,35.35
2023-04-28T19:56:33.764Z,39.75
2023-04-28T19:59:02.251Z,34.33
2023-04-28T20:01:30.905Z,33.25
2023-04-28T20:04:01.553Z,39.42
2023-04-28T20:06:30.039Z,37.80
2023-04-28T20:08:58.408Z,36.38
2023-04-28T20:11:26.769Z,35.35
2023-04-28T20:13:55.298Z,36.13
2023-04-28T20:16:25.262Z,34.58
2023-04-28T20:18:53.800Z,37.03
2023-04-28T20:21:24.302Z,37.58
2023-04-28T20:23:52.921Z,39.38
2023-04-28T20:26:21.755Z,38.60
2023-04-28T20:28:50.607Z,42.72
2023-04-28T20:31:19.027Z,42.03
2023-04-28T20:33:47.402Z,40.70
2023-04-28T20:36:15.791Z,38.60
2023-04-28T20:38:46.037Z,41.30
2023-04-28T20:41:14.506Z,42.28
2023-04-28T20:43:43.114Z,38.05
2023-04-28T20:46:13.533Z,40.42
2023-04-28T20:48:43.171Z,40.72
2023-04-28T20:51:11.933Z,41.10
2023-04-28T20:53:40.494Z,40.05
2023-04-28T20:56:10.271Z,39.63
2023-04-28T20:58:38.629Z,42.42
2023-04-28T21:01:07.254Z,44.63
2023-04-28T21:03:35.618Z,44.75
2023-04-28T21:06:04.053Z,43.00
2023-04-28T21:08:32.356Z,54.05
2023-04-28T21:11:00.790Z,44.00
2023-04-28T21:13:30.703Z,44.60
2023-04-28T21:15:59.075Z,44.67
2023-04-28T21:18:27.477Z,50.30
2023-04-28T21:20:56.633Z,48.30
2023-04-28T21:23:25.045Z,61.22
2023-04-28T21:25:53.436Z,52.78
2023-04-28T21:28:21.762Z,64.50
2023-04-28T21:30:54.379Z,63.72
2023-04-28T21:33:23.264Z,58.28
2023-04-28T21:35:51.748Z,56.50
2023-04-28T21:38:20.181Z,54.45
2023-04-28T21:40:48.773Z,56.35
2023-04-28T21:43:17.516Z,56.53
2023-04-28T21:45:45.907Z,58.95
2023-04-28T21:48:15.595Z,66.20
2023-04-28T21:50:43.960Z,63.75
2023-04-28T21:53:12.244Z,62.35
2023-04-28T21:55:41.746Z,62.90
2023-04-28T21:58:10.013Z,56.38
2023-04-28T22:00:44.521Z,55.47
2023-04-28T22:03:16.033Z,58.42
2023-04-28T22:05:45.687Z,53.78
2023-04-28T22:08:14.647Z,46.65
2023-04-28T22:10:44.076Z,51.65
2023-04-28T22:13:12.365Z,43.83
2023-04-28T22:15:41.736Z,57.97
2023-04-28T22:18:10.311Z,44.38
2023-04-28T22:20:40.379Z,51.92
2023-04-28T22:23:08.814Z,42.40
2023-04-28T22:25:37.104Z,52.22
2023-04-28T22:28:05.809Z,53.17
2023-04-28T22:30:34.465Z,55.67
2023-04-28T22:33:03.113Z,54.92
2023-04-28T22:35:31.697Z,59.58
2023-04-28T22:38:01.735Z,60.25
2023-04-28T22:40:30.265Z,48.80
2023-04-28T22:42:58.910Z,49.25
2023-04-28T22:45:27.621Z,44.30
2023-04-28T22:47:56.972Z,52.60
2023-04-28T22:50:25.601Z,52.60
2023-04-28T22:52:54.149Z,51.30
2023-04-28T22:55:24.275Z,54.22
2023-04-28T22:57:52.842Z,47.47
2023-04-28T23:00:21.459Z,47.20
2023-04-28T23:02:50.181Z,47.53
2023-04-28T23:05:19.085Z,39.22
2023-04-28T23:07:47.789Z,51.88
2023-04-28T23:10:16.588Z,51.20
2023-04-28T23:12:46.643Z,48.47
2023-04-28T23:15:15.199Z,54.83
2023-04-28T23:17:45.574Z,50.80
2023-04-28T23:20:14.677Z,48.95
2023-04-28T23:22:43.261Z,50.67
2023-04-28T23:25:12.509Z,52.95
2023-04-28T23:27:41.073Z,55.53
2023-04-28T23:30:11.930Z,51.60
2023-04-28T23:32:40.663Z,56.83
2023-04-28T23:35:09.742Z,41.88
2023-04-28T23:37:38.408Z,52.25
2023-04-28T23:40:07.716Z,63.75
2023-04-28T23:42:36.271Z,54.97
2023-04-28T23:45:06.433Z,61.90
2023-04-28T23:47:36.441Z,54.50
2023-04-28T23:50:08.779Z,56.20
2023-04-28T23:52:38.697Z,54.60
2023-04-28T23:55:08.648Z,68.45
2023-04-28T23:57:37.495Z,63.63
